Time;durP1;ratioP1;P1;durP2;ratioP2;P2;SDS_P1;SDS_P2;PMS_P1;PMS_P2;Temp;Humidity;BMP_temperature;BMP_pressure;BME280_temperature;BME280_humidity;BME280_pressure;Samples;Min_cycle;Max_cycle;Signal;HPM_P1;HPM_P2
2023/12/05 00:00:15;;;;;;;14.23;12.80;;;;;;;;;;524353;28;962;-71
2023/12/05 00:00:31;;;;;;;14.00;12.60;;;;;;;;;;524262;28;827;-71
2023/12/05 00:00:46;;;;;;;14.20;12.73;;;;;;;;;;524285;28;1088;-72
2023/12/05 00:01:01;;;;;;;14.43;12.93;;;;;;;;;;524145;28;890;-72
2023/12/05 00:01:17;;;;;;;14.07;12.60;;;;;;;;;;524276;28;914;-72
2023/12/05 00:01:32;;;;;;;13.80;12.40;;;;;;;;;;524074;28;1071;-72
2023/12/05 00:01:47;;;;;;;14.20;12.70;;;;;;;;;;522297;28;882;-72
2023/12/05 00:02:03;;;;;;;14.23;12.73;;;;;;;;;;522269;28;1124;-72
2023/12/05 00:02:18;;;;;;;14.27;12.77;;;;;;;;;;523273;28;1832;-72
2023/12/05 00:02:33;;;;;;;14.03;12.60;;;;;;;;;;523710;28;1033;-72
2023/12/05 00:02:49;;;;;;;13.60;12.20;;;;;;;;;;524275;28;1144;-72
2023/12/05 00:03:04;;;;;;;13.68;12.27;;;;;;;;;;524255;28;1064;-72
2023/12/05 00:03:19;;;;;;;14.17;12.67;;;;;;;;;;524322;28;850;-72
2023/12/05 00:03:35;;;;;;;14.47;12.97;;;;;;;;;;524139;28;1048;-72
2023/12/05 00:03:50;;;;;;;14.52;13.02;;;;;;;;;;524023;28;855;-72
2023/12/05 00:04:06;;;;;;;14.73;13.23;;;;;;;;;;523952;28;819;-71
2023/12/05 00:04:21;;;;;;;14.48;13.05;;;;;;;;;;524326;28;878;-72
2023/12/05 00:04:37;;;;;;;14.33;12.87;;;;;;;;;;524296;28;1103;-72
2023/12/05 00:04:52;;;;;;;14.63;13.13;;;;;;;;;;524303;28;1021;-72
2023/12/05 00:05:09;;;;;;;14.50;13.00;;;;;;;;;;524268;28;775;-72
2023/12/05 00:05:24;;;;;;;14.32;12.82;;;;;;;;;;524309;28;894;-72
2023/12/05 00:05:40;;;;;;;14.83;13.33;;;;;;;;;;524007;28;982;-72
2023/12/05 00:05:55;;;;;;;15.13;13.63;;;;;;;;;;524328;28;843;-72
2023/12/05 00:06:11;;;;;;;15.03;13.53;;;;;;;;;;524342;28;903;-72
2023/12/05 00:06:26;;;;;;;15.10;13.50;;;;;;;;;;524348;28;899;-72
2023/12/05 00:06:41;;;;;;;14.47;12.97;;;;;;;;;;524097;28;1036;-72
2023/12/05 00:06:57;;;;;;;14.03;12.63;;;;;;;;;;523719;28;1801;-72
2023/12/05 00:07:12;;;;;;;14.25;12.82;;;;;;;;;;523662;28;1026;-71
2023/12/05 00:07:28;;;;;;;14.67;13.17;;;;;;;;;;524195;28;1975;-72
2023/12/05 00:07:44;;;;;;;14.55;13.05;;;;;;;;;;524129;28;973;-71
2023/12/05 00:07:59;;;;;;;14.13;12.73;;;;;;;;;;524285;28;997;-72
2023/12/05 00:08:15;;;;;;;14.30;12.73;;;;;;;;;;524149;28;921;-73
2023/12/05 00:08:30;;;;;;;14.30;12.80;;;;;;;;;;524335;28;949;-72
2023/12/05 00:08:46;;;;;;;14.30;12.87;;;;;;;;;;524205;28;894;-72
2023/12/05 00:09:01;;;;;;;14.25;12.75;;;;;;;;;;523906;28;921;-72
2023/12/05 00:09:16;;;;;;;14.23;12.73;;;;;;;;;;524380;28;945;-72
2023/12/05 00:09:31;;;;;;;14.40;12.90;;;;;;;;;;524248;28;815;-72
2023/12/05 00:09:47;;;;;;;14.30;12.80;;;;;;;;;;524099;28;1168;-72
2023/12/05 00:10:02;;;;;;;14.20;12.70;;;;;;;;;;521849;28;1216;-72
2023/12/05 00:10:17;;;;;;;14.27;12.77;;;;;;;;;;523298;28;1484;-72
2023/12/05 00:10:33;;;;;;;14.07;12.67;;;;;;;;;;523740;28;1064;-72
2023/12/05 00:10:48;;;;;;;13.90;12.50;;;;;;;;;;522112;28;818;-72
2023/12/05 00:11:05;;;;;;;14.32;12.82;;;;;;;;;;521960;28;1323;-72
2023/12/05 00:11:21;;;;;;;15.27;13.65;;;;;;;;;;522094;28;1058;-72
2023/12/05 00:11:39;;;;;;;15.10;13.32;;;;;;;;;;521716;28;1103;-72
2023/12/05 00:11:54;;;;;;;13.93;12.52;;;;;;;;;;522852;28;859;-72
2023/12/05 00:12:10;;;;;;;13.53;12.20;;;;;;;;;;523351;28;890;-72
2023/12/05 00:12:26;;;;;;;13.83;12.43;;;;;;;;;;522051;28;862;-72
2023/12/05 00:12:42;;;;;;;13.82;12.45;;;;;;;;;;521943;28;875;-72
2023/12/05 00:12:58;;;;;;;13.60;12.27;;;;;;;;;;523257;28;956;-72
2023/12/05 00:13:13;;;;;;;14.02;12.57;;;;;;;;;;524150;28;843;-73
2023/12/05 00:13:28;;;;;;;14.03;12.50;;;;;;;;;;524347;28;826;-72
2023/12/05 00:13:44;;;;;;;13.30;11.90;;;;;;;;;;524148;28;901;-72
2023/12/05 00:13:59;;;;;;;12.93;11.57;;;;;;;;;;523730;28;918;-72
2023/12/05 00:14:14;;;;;;;13.07;11.67;;;;;;;;;;522781;28;2000;-72
2023/12/05 00:14:32;;;;;;;13.20;11.80;;;;;;;;;;522728;28;1291;-72
2023/12/05 00:14:47;;;;;;;13.23;11.82;;;;;;;;;;524172;28;1227;-72
2023/12/05 00:15:03;;;;;;;13.35;11.95;;;;;;;;;;524211;28;1078;-72
2023/12/05 00:15:19;;;;;;;13.68;12.27;;;;;;;;;;524374;28;883;-72
2023/12/05 00:15:34;;;;;;;13.47;12.00;;;;;;;;;;524195;28;1016;-72
2023/12/05 00:15:49;;;;;;;13.25;11.43;;;;;;;;;;524258;28;918;-72
2023/12/05 00:16:05;;;;;;;12.53;11.13;;;;;;;;;;524056;28;862;-74
2023/12/05 00:16:21;;;;;;;13.18;11.88;;;;;;;;;;524196;28;910;-73
2023/12/05 00:16:36;;;;;;;13.97;12.57;;;;;;;;;;524174;28;1024;-72
2023/12/05 00:16:51;;;;;;;14.20;12.73;;;;;;;;;;524216;28;1009;-73
2023/12/05 00:17:06;;;;;;;14.30;12.63;;;;;;;;;;524332;28;1021;-73
2023/12/05 00:17:22;;;;;;;14.70;12.57;;;;;;;;;;524246;28;898;-73
2023/12/05 00:17:37;;;;;;;14.07;12.40;;;;;;;;;;524194;28;1044;-73
2023/12/05 00:17:52;;;;;;;13.83;12.37;;;;;;;;;;524117;28;862;-73
2023/12/05 00:18:09;;;;;;;14.10;12.60;;;;;;;;;;524224;28;1037;-73
2023/12/05 00:18:24;;;;;;;14.10;12.68;;;;;;;;;;524243;28;910;-73
2023/12/05 00:18:43;;;;;;;13.88;12.48;;;;;;;;;;524267;28;1132;-73
2023/12/05 00:18:58;;;;;;;13.70;12.30;;;;;;;;;;522448;28;1746;-73
2023/12/05 00:19:13;;;;;;;13.63;12.20;;;;;;;;;;524270;28;929;-73
2023/12/05 00:19:28;;;;;;;13.57;12.17;;;;;;;;;;524238;28;961;-74
2023/12/05 00:19:44;;;;;;;13.80;12.40;;;;;;;;;;524144;28;1048;-75
2023/12/05 00:19:59;;;;;;;13.43;12.02;;;;;;;;;;524205;28;945;-74
2023/12/05 00:20:15;;;;;;;13.30;11.90;;;;;;;;;;526038;28;874;-74
2023/12/05 00:20:30;;;;;;;13.95;12.55;;;;;;;;;;526364;28;921;-74
2023/12/05 00:20:45;;;;;;;13.90;12.40;;;;;;;;;;524408;28;1090;-75
2023/12/05 00:21:01;;;;;;;13.50;12.10;;;;;;;;;;523920;28;803;-74
2023/12/05 00:21:17;;;;;;;13.33;12.00;;;;;;;;;;524337;28;918;-74
2023/12/05 00:21:32;;;;;;;13.18;11.88;;;;;;;;;;524212;28;818;-74
2023/12/05 00:21:47;;;;;;;13.30;12.00;;;;;;;;;;524125;28;803;-74
2023/12/05 00:22:03;;;;;;;14.00;12.50;;;;;;;;;;524152;28;850;-75
2023/12/05 00:22:18;;;;;;;15.10;12.63;;;;;;;;;;524317;28;882;-74
2023/12/05 00:22:34;;;;;;;14.27;12.60;;;;;;;;;;524061;28;1131;-75
2023/12/05 00:22:49;;;;;;;14.13;12.73;;;;;;;;;;524303;28;850;-75
2023/12/05 00:23:04;;;;;;;13.83;12.43;;;;;;;;;;524209;28;886;-75
2023/12/05 00:23:19;;;;;;;13.57;12.17;;;;;;;;;;524379;28;1060;-74
2023/12/05 00:23:35;;;;;;;13.60;12.20;;;;;;;;;;524087;28;1123;-75
2023/12/05 00:23:50;;;;;;;13.70;12.30;;;;;;;;;;524120;28;937;-74
2023/12/05 00:24:06;;;;;;;13.73;12.27;;;;;;;;;;523900;28;849;-73
2023/12/05 00:24:21;;;;;;;13.70;12.30;;;;;;;;;;521803;28;1330;-73
2023/12/05 00:24:37;;;;;;;13.65;12.25;;;;;;;;;;521917;28;1178;-73
2023/12/05 00:24:52;;;;;;;13.90;12.40;;;;;;;;;;522147;28;1009;-73
2023/12/05 00:25:08;;;;;;;13.63;12.17;;;;;;;;;;522140;28;858;-73
2023/12/05 00:25:23;;;;;;;13.38;12.02;;;;;;;;;;521917;28;866;-73
2023/12/05 00:25:39;;;;;;;13.50;12.10;;;;;;;;;;521769;28;1052;-73
2023/12/05 00:25:54;;;;;;;13.80;12.30;;;;;;;;;;522091;28;861;-73
2023/12/05 00:26:09;;;;;;;13.93;12.43;;;;;;;;;;521135;28;1792;-73
2023/12/05 00:26:25;;;;;;;13.82;12.43;;;;;;;;;;523614;28;984;-73
2023/12/05 00:26:40;;;;;;;14.00;12.50;;;;;;;;;;522864;28;1057;-76
2023/12/05 00:26:55;;;;;;;13.73;12.23;;;;;;;;;;522187;28;878;-73
2023/12/05 00:27:11;;;;;;;13.30;11.90;;;;;;;;;;522175;28;910;-73
2023/12/05 00:27:26;;;;;;;13.37;11.97;;;;;;;;;;524270;28;1973;-73
2023/12/05 00:27:41;;;;;;;13.98;12.57;;;;;;;;;;524082;28;1028;-73
2023/12/05 00:27:57;;;;;;;14.27;12.87;;;;;;;;;;524236;28;940;-73
2023/12/05 00:28:12;;;;;;;14.23;12.73;;;;;;;;;;524151;28;961;-73
2023/12/05 00:28:27;;;;;;;13.93;12.53;;;;;;;;;;522281;28;978;-74
2023/12/05 00:28:42;;;;;;;14.10;12.70;;;;;;;;;;525008;28;1104;-74
2023/12/05 00:28:58;;;;;;;14.30;12.80;;;;;;;;;;525833;28;830;-73
2023/12/05 00:29:13;;;;;;;14.50;13.00;;;;;;;;;;526334;28;1032;-73
2023/12/05 00:29:28;;;;;;;14.50;13.00;;;;;;;;;;526400;28;806;-73
2023/12/05 00:29:46;;;;;;;13.97;12.57;;;;;;;;;;524622;28;1028;-73
2023/12/05 00:30:03;;;;;;;14.20;12.70;;;;;;;;;;524236;28;885;-73
2023/12/05 00:30:18;;;;;;;14.70;13.20;;;;;;;;;;524223;28;882;-73
2023/12/05 00:30:33;;;;;;;14.50;13.00;;;;;;;;;;523868;28;1068;-74
2023/12/05 00:30:48;;;;;;;14.70;13.20;;;;;;;;;;524344;28;830;-74
2023/12/05 00:31:04;;;;;;;15.17;13.57;;;;;;;;;;524167;28;973;-73
2023/12/05 00:31:20;;;;;;;15.27;13.68;;;;;;;;;;524313;28;889;-74
2023/12/05 00:31:35;;;;;;;15.43;13.83;;;;;;;;;;524099;28;1115;-73
2023/12/05 00:31:50;;;;;;;15.68;14.05;;;;;;;;;;524317;28;838;-73
2023/12/05 00:32:06;;;;;;;15.43;13.73;;;;;;;;;;524071;28;923;-73
2023/12/05 00:32:22;;;;;;;15.10;13.50;;;;;;;;;;524154;28;846;-73
2023/12/05 00:32:37;;;;;;;15.45;13.85;;;;;;;;;;524071;28;1075;-74
2023/12/05 00:32:53;;;;;;;15.73;14.13;;;;;;;;;;523204;28;1984;-73
2023/12/05 00:33:08;;;;;;;15.70;14.10;;;;;;;;;;522992;28;873;-73
2023/12/05 00:33:23;;;;;;;15.52;13.93;;;;;;;;;;524222;28;906;-74
2023/12/05 00:33:39;;;;;;;15.80;14.10;;;;;;;;;;524122;28;1084;-73
2023/12/05 00:33:54;;;;;;;15.60;13.97;;;;;;;;;;521408;28;1585;-73
2023/12/05 00:34:09;;;;;;;15.80;14.18;;;;;;;;;;522058;28;950;-74
2023/12/05 00:34:25;;;;;;;16.23;14.53;;;;;;;;;;522120;28;858;-74
2023/12/05 00:34:40;;;;;;;15.93;14.23;;;;;;;;;;521822;28;1077;-74
2023/12/05 00:34:55;;;;;;;15.80;14.10;;;;;;;;;;521944;28;870;-74
2023/12/05 00:35:11;;;;;;;16.13;14.43;;;;;;;;;;522005;28;946;-74
2023/12/05 00:35:26;;;;;;;15.95;14.25;;;;;;;;;;522177;28;1210;-74
2023/12/05 00:35:41;;;;;;;15.50;13.80;;;;;;;;;;522119;28;1045;-73
2023/12/05 00:35:57;;;;;;;15.30;13.70;;;;;;;;;;524209;28;1342;-73
2023/12/05 00:36:12;;;;;;;15.15;13.63;;;;;;;;;;524222;28;962;-74
2023/12/05 00:36:27;;;;;;;15.57;13.97;;;;;;;;;;524287;28;942;-74
2023/12/05 00:36:43;;;;;;;15.85;14.25;;;;;;;;;;523790;28;1068;-74
2023/12/05 00:36:58;;;;;;;15.40;13.80;;;;;;;;;;524274;28;914;-74
2023/12/05 00:37:13;;;;;;;15.17;13.63;;;;;;;;;;524130;28;1003;-74
2023/12/05 00:37:29;;;;;;;15.40;13.80;;;;;;;;;;524198;28;826;-73
2023/12/05 00:37:44;;;;;;;15.88;14.18;;;;;;;;;;524125;28;1087;-74
2023/12/05 00:37:59;;;;;;;16.53;14.77;;;;;;;;;;524339;28;803;-74
2023/12/05 00:38:15;;;;;;;16.60;14.80;;;;;;;;;;523027;28;1753;-74
2023/12/05 00:38:30;;;;;;;16.58;14.55;;;;;;;;;;524038;28;819;-74
2023/12/05 00:38:47;;;;;;;15.77;14.07;;;;;;;;;;524023;28;1032;-73
2023/12/05 00:39:02;;;;;;;15.10;13.60;;;;;;;;;;523724;28;1032;-75
2023/12/05 00:39:18;;;;;;;15.73;14.05;;;;;;;;;;524252;28;866;-74
2023/12/05 00:39:33;;;;;;;15.60;13.90;;;;;;;;;;524120;28;1240;-74
2023/12/05 00:39:48;;;;;;;15.20;13.60;;;;;;;;;;524219;28;802;-74
2023/12/05 00:40:04;;;;;;;16.02;14.38;;;;;;;;;;524158;28;874;-74
2023/12/05 00:40:20;;;;;;;16.63;14.93;;;;;;;;;;524368;28;847;-74
2023/12/05 00:40:35;;;;;;;16.35;14.65;;;;;;;;;;524077;28;1009;-74
2023/12/05 00:40:50;;;;;;;16.03;14.33;;;;;;;;;;524240;28;985;-74
2023/12/05 00:41:07;;;;;;;15.53;13.93;;;;;;;;;;524074;28;1010;-74
2023/12/05 00:41:24;;;;;;;15.25;13.70;;;;;;;;;;524165;28;894;-74
2023/12/05 00:41:40;;;;;;;15.45;13.88;;;;;;;;;;524224;28;1052;-74
2023/12/05 00:41:55;;;;;;;15.50;13.90;;;;;;;;;;524223;28;953;-74
2023/12/05 00:42:10;;;;;;;15.68;14.02;;;;;;;;;;524561;28;1213;-74
2023/12/05 00:42:26;;;;;;;15.90;14.20;;;;;;;;;;524146;28;1338;-74
2023/12/05 00:42:41;;;;;;;15.70;14.10;;;;;;;;;;524085;28;1029;-73
2023/12/05 00:42:56;;;;;;;15.65;13.98;;;;;;;;;;524027;28;818;-74
2023/12/05 00:43:12;;;;;;;15.77;13.77;;;;;;;;;;524121;28;977;-74
2023/12/05 00:43:27;;;;;;;15.20;13.60;;;;;;;;;;524166;28;1103;-74
2023/12/05 00:43:43;;;;;;;14.95;13.45;;;;;;;;;;524134;28;1092;-74
2023/12/05 00:43:58;;;;;;;15.07;13.57;;;;;;;;;;522619;28;1801;-74
2023/12/05 00:44:13;;;;;;;14.83;13.33;;;;;;;;;;524286;28;795;-74
2023/12/05 00:44:28;;;;;;;15.02;13.43;;;;;;;;;;522898;28;905;-74
2023/12/05 00:44:44;;;;;;;15.40;13.80;;;;;;;;;;523790;28;1041;-74
2023/12/05 00:44:59;;;;;;;15.67;13.97;;;;;;;;;;524130;28;1032;-74
2023/12/05 00:45:14;;;;;;;15.88;14.13;;;;;;;;;;524108;28;1045;-74
2023/12/05 00:45:29;;;;;;;15.60;13.90;;;;;;;;;;524211;28;854;-75
2023/12/05 00:45:45;;;;;;;15.77;14.17;;;;;;;;;;524216;28;1509;-74
2023/12/05 00:46:00;;;;;;;15.63;14.03;;;;;;;;;;523029;28;1676;-74
2023/12/05 00:46:15;;;;;;;15.25;13.70;;;;;;;;;;523356;28;1712;-74
2023/12/05 00:46:31;;;;;;;15.63;14.03;;;;;;;;;;524172;28;970;-74
2023/12/05 00:46:46;;;;;;;16.20;14.50;;;;;;;;;;523998;28;1080;-75
2023/12/05 00:47:04;;;;;;;15.98;14.27;;;;;;;;;;524199;28;977;-74
2023/12/05 00:47:20;;;;;;;15.18;13.57;;;;;;;;;;524065;28;1961;-74
2023/12/05 00:47:35;;;;;;;15.50;13.77;;;;;;;;;;524035;28;1627;-74
2023/12/05 00:47:51;;;;;;;15.68;13.85;;;;;;;;;;524271;28;902;-74
2023/12/05 00:48:06;;;;;;;15.57;13.77;;;;;;;;;;524241;28;838;-74
2023/12/05 00:48:22;;;;;;;15.13;13.52;;;;;;;;;;524338;28;890;-74
2023/12/05 00:48:37;;;;;;;15.03;13.50;;;;;;;;;;524144;28;1092;-75
2023/12/05 00:48:52;;;;;;;14.82;13.32;;;;;;;;;;523901;28;854;-74
2023/12/05 00:49:07;;;;;;;14.90;13.40;;;;;;;;;;524036;28;901;-74
2023/12/05 00:49:23;;;;;;;15.13;13.57;;;;;;;;;;524217;28;704;-74
2023/12/05 00:49:38;;;;;;;15.40;13.80;;;;;;;;;;523073;28;1842;-74
2023/12/05 00:49:53;;;;;;;15.23;13.63;;;;;;;;;;524167;28;819;-74
2023/12/05 00:50:09;;;;;;;14.87;13.27;;;;;;;;;;524885;28;1893;-74
2023/12/05 00:50:24;;;;;;;15.25;13.65;;;;;;;;;;522720;28;1061;-74
2023/12/05 00:50:39;;;;;;;15.20;13.60;;;;;;;;;;523258;28;2136;-74
2023/12/05 00:50:55;;;;;;;14.90;13.40;;;;;;;;;;524163;28;1005;-75
2023/12/05 00:51:10;;;;;;;14.75;13.25;;;;;;;;;;524069;28;886;-75
2023/12/05 00:51:25;;;;;;;14.30;12.80;;;;;;;;;;523931;28;791;-75
2023/12/05 00:51:41;;;;;;;14.17;12.70;;;;;;;;;;523820;28;910;-74
2023/12/05 00:51:56;;;;;;;14.68;13.10;;;;;;;;;;524197;28;822;-74
2023/12/05 00:52:11;;;;;;;14.83;13.23;;;;;;;;;;524059;28;791;-74
2023/12/05 00:52:26;;;;;;;14.43;12.93;;;;;;;;;;523979;28;973;-75
2023/12/05 00:52:42;;;;;;;14.07;12.60;;;;;;;;;;523466;28;1076;-74
2023/12/05 00:52:58;;;;;;;13.98;12.52;;;;;;;;;;524342;28;867;-75
2023/12/05 00:53:13;;;;;;;14.37;12.87;;;;;;;;;;524119;28;877;-74
2023/12/05 00:53:28;;;;;;;14.57;13.07;;;;;;;;;;523996;28;1163;-74
2023/12/05 00:53:44;;;;;;;14.52;13.02;;;;;;;;;;523823;28;1079;-73
2023/12/05 00:53:59;;;;;;;14.87;13.20;;;;;;;;;;523523;28;1166;-74
2023/12/05 00:54:14;;;;;;;14.40;12.90;;;;;;;;;;524083;28;1147;-74
2023/12/05 00:54:30;;;;;;;13.75;12.32;;;;;;;;;;524369;28;779;-74
2023/12/05 00:54:45;;;;;;;13.77;12.30;;;;;;;;;;524106;28;1100;-74
2023/12/05 00:55:00;;;;;;;13.80;12.30;;;;;;;;;;524188;28;1013;-74
2023/12/05 00:55:16;;;;;;;14.10;12.60;;;;;;;;;;524176;28;887;-74
2023/12/05 00:55:31;;;;;;;14.20;12.70;;;;;;;;;;522977;28;1777;-74
2023/12/05 00:55:46;;;;;;;14.43;12.93;;;;;;;;;;524008;28;834;-74
2023/12/05 00:56:02;;;;;;;14.60;13.00;;;;;;;;;;524208;28;842;-74
2023/12/05 00:56:19;;;;;;;14.47;12.97;;;;;;;;;;524318;28;827;-74
2023/12/05 00:56:34;;;;;;;14.45;12.95;;;;;;;;;;524005;28;965;-74
2023/12/05 00:56:49;;;;;;;14.07;12.57;;;;;;;;;;524315;28;1025;-75
2023/12/05 00:57:04;;;;;;;14.17;12.67;;;;;;;;;;521868;28;883;-74
2023/12/05 00:57:20;;;;;;;14.63;13.13;;;;;;;;;;522034;28;855;-74
2023/12/05 00:57:35;;;;;;;14.53;13.03;;;;;;;;;;521694;28;882;-75
2023/12/05 00:57:50;;;;;;;14.47;12.97;;;;;;;;;;522040;28;965;-75
2023/12/05 00:58:05;;;;;;;14.60;13.10;;;;;;;;;;521983;28;914;-74
2023/12/05 00:58:21;;;;;;;14.40;12.90;;;;;;;;;;521989;28;898;-74
2023/12/05 00:58:36;;;;;;;14.00;12.60;;;;;;;;;;521861;28;972;-74
2023/12/05 00:58:51;;;;;;;13.82;12.43;;;;;;;;;;521973;28;913;-74
2023/12/05 00:59:07;;;;;;;14.47;12.97;;;;;;;;;;523955;28;890;-74
2023/12/05 00:59:22;;;;;;;14.73;13.20;;;;;;;;;;524261;28;1044;-74
2023/12/05 00:59:37;;;;;;;15.17;12.67;;;;;;;;;;523909;28;1053;-74
2023/12/05 00:59:52;;;;;;;14.80;12.50;;;;;;;;;;521791;28;1829;-75
2023/12/05 01:00:11;;;;;;;14.33;12.90;;;;;;;;;;521851;28;973;-74
2023/12/05 01:00:26;;;;;;;14.57;13.15;;;;;;;;;;522037;28;957;-74
2023/12/05 01:00:42;;;;;;;14.40;12.93;;;;;;;;;;521875;28;1227;-75
2023/12/05 01:00:57;;;;;;;14.87;13.27;;;;;;;;;;521953;28;1097;-74
2023/12/05 01:01:13;;;;;;;14.60;13.07;;;;;;;;;;521978;28;815;-74
2023/12/05 01:01:28;;;;;;;14.57;13.07;;;;;;;;;;521953;28;822;-75
2023/12/05 01:01:44;;;;;;;14.90;13.30;;;;;;;;;;522341;28;1056;-74
2023/12/05 01:01:59;;;;;;;14.30;12.80;;;;;;;;;;521905;28;1177;-74
2023/12/05 01:02:14;;;;;;;13.85;12.40;;;;;;;;;;518652;28;1464;-74
2023/12/05 01:02:30;;;;;;;14.10;12.63;;;;;;;;;;519846;28;1322;-73
2023/12/05 01:02:45;;;;;;;14.63;13.10;;;;;;;;;;519809;28;1037;-74
2023/12/05 01:03:01;;;;;;;14.38;12.80;;;;;;;;;;519959;28;966;-74
2023/12/05 01:03:16;;;;;;;13.97;12.40;;;;;;;;;;519965;28;823;-74
2023/12/05 01:03:31;;;;;;;13.73;12.32;;;;;;;;;;519028;28;1773;-73
2023/12/05 01:03:47;;;;;;;13.70;12.30;;;;;;;;;;519876;28;902;-74
2023/12/05 01:04:02;;;;;;;13.50;12.10;;;;;;;;;;521774;28;815;-74
2023/12/05 01:04:17;;;;;;;13.77;12.33;;;;;;;;;;524178;28;847;-74
2023/12/05 01:04:32;;;;;;;13.87;12.47;;;;;;;;;;523848;28;909;-74
2023/12/05 01:04:48;;;;;;;14.00;12.50;;;;;;;;;;524088;28;902;-74
2023/12/05 01:05:04;;;;;;;14.23;12.73;;;;;;;;;;524266;28;866;-73
2023/12/05 01:05:19;;;;;;;14.40;12.90;;;;;;;;;;524158;28;870;-74
2023/12/05 01:05:35;;;;;;;14.20;12.70;;;;;;;;;;521780;28;1343;-73
2023/12/05 01:05:50;;;;;;;13.33;11.93;;;;;;;;;;521927;28;1024;-74
2023/12/05 01:06:05;;;;;;;13.17;11.73;;;;;;;;;;521834;28;934;-73
2023/12/05 01:06:21;;;;;;;13.00;11.70;;;;;;;;;;522020;28;1030;-74
2023/12/05 01:06:36;;;;;;;13.00;11.70;;;;;;;;;;521863;28;934;-73
2023/12/05 01:06:51;;;;;;;13.20;11.80;;;;;;;;;;521884;28;799;-74
2023/12/05 01:07:07;;;;;;;12.90;11.50;;;;;;;;;;521956;28;870;-74
2023/12/05 01:07:22;;;;;;;13.32;11.40;;;;;;;;;;522217;28;1912;-73
2023/12/05 01:07:37;;;;;;;12.50;11.20;;;;;;;;;;523991;28;1068;-74
2023/12/05 01:07:53;;;;;;;12.00;10.80;;;;;;;;;;524213;28;816;-74
2023/12/05 01:08:08;;;;;;;12.07;10.83;;;;;;;;;;523918;28;838;-74
2023/12/05 01:08:23;;;;;;;11.70;10.50;;;;;;;;;;524206;28;966;-74
2023/12/05 01:08:39;;;;;;;11.57;10.40;;;;;;;;;;523908;28;1099;-73
2023/12/05 01:08:54;;;;;;;12.00;10.80;;;;;;;;;;523830;28;886;-73
2023/12/05 01:09:10;;;;;;;11.83;10.63;;;;;;;;;;524153;28;839;-74
2023/12/05 01:09:25;;;;;;;11.80;10.60;;;;;;;;;;524246;28;843;-73
2023/12/05 01:09:41;;;;;;;11.68;10.57;;;;;;;;;;524046;28;1004;-74
2023/12/05 01:09:56;;;;;;;11.50;10.40;;;;;;;;;;524276;28;799;-73
2023/12/05 01:10:11;;;;;;;11.43;10.23;;;;;;;;;;524841;28;1050;-74
2023/12/05 01:10:27;;;;;;;11.55;10.40;;;;;;;;;;526343;28;1029;-74
2023/12/05 01:10:42;;;;;;;11.47;10.37;;;;;;;;;;524609;28;1019;-74
2023/12/05 01:10:58;;;;;;;11.20;10.10;;;;;;;;;;522906;28;2740;-73
2023/12/05 01:11:14;;;;;;;11.40;10.30;;;;;;;;;;522128;28;839;-74
2023/12/05 01:11:29;;;;;;;11.67;10.47;;;;;;;;;;522038;28;1912;-73
2023/12/05 01:11:45;;;;;;;11.60;10.40;;;;;;;;;;523735;28;1080;-74
2023/12/05 01:12:00;;;;;;;11.50;10.30;;;;;;;;;;524191;28;894;-74
2023/12/05 01:12:15;;;;;;;11.80;10.60;;;;;;;;;;523852;28;894;-74
2023/12/05 01:12:31;;;;;;;12.10;10.80;;;;;;;;;;524196;28;882;-74
2023/12/05 01:12:46;;;;;;;11.53;10.33;;;;;;;;;;522983;28;1718;-73
2023/12/05 01:13:06;;;;;;;11.53;10.40;;;;;;;;;;521638;28;1045;-73
2023/12/05 01:13:21;;;;;;;11.88;10.73;;;;;;;;;;521921;28;999;-74
2023/12/05 01:13:36;;;;;;;12.07;10.87;;;;;;;;;;521704;28;2373;-73
2023/12/05 01:13:52;;;;;;;11.60;10.48;;;;;;;;;;520940;28;2262;-74
2023/12/05 01:14:07;;;;;;;11.20;10.10;;;;;;;;;;521582;28;1623;-74
2023/12/05 01:14:22;;;;;;;11.27;10.18;;;;;;;;;;521625;28;1434;-73
2023/12/05 01:14:38;;;;;;;11.60;10.50;;;;;;;;;;522359;28;1112;-73
2023/12/05 01:14:53;;;;;;;11.47;10.37;;;;;;;;;;521100;28;1411;-74
2023/12/05 01:15:09;;;;;;;11.55;10.40;;;;;;;;;;521940;28;894;-73
2023/12/05 01:15:24;;;;;;;11.90;10.70;;;;;;;;;;521854;28;1115;-74
2023/12/05 01:15:39;;;;;;;11.70;10.50;;;;;;;;;;521687;28;1076;-74
2023/12/05 01:15:55;;;;;;;11.90;10.70;;;;;;;;;;521880;28;877;-74
2023/12/05 01:16:11;;;;;;;12.47;11.17;;;;;;;;;;521831;28;873;-74
2023/12/05 01:16:26;;;;;;;12.23;10.95;;;;;;;;;;521859;28;905;-74
2023/12/05 01:16:44;;;;;;;11.98;10.68;;;;;;;;;;521868;28;1346;-74
2023/12/05 01:16:59;;;;;;;12.27;11.07;;;;;;;;;;522157;28;1057;-74
2023/12/05 01:17:15;;;;;;;12.33;11.10;;;;;;;;;;524058;28;1118;-73
2023/12/05 01:17:31;;;;;;;12.40;11.10;;;;;;;;;;524185;28;922;-73
2023/12/05 01:17:46;;;;;;;12.43;11.17;;;;;;;;;;524037;28;1048;-73
2023/12/05 01:18:02;;;;;;;12.15;10.95;;;;;;;;;;524174;28;1072;-73
2023/12/05 01:18:18;;;;;;;11.98;10.77;;;;;;;;;;524142;28;938;-73
2023/12/05 01:18:33;;;;;;;12.07;10.87;;;;;;;;;;523916;28;1056;-73
2023/12/05 01:18:48;;;;;;;11.93;10.73;;;;;;;;;;524116;28;803;-73
2023/12/05 01:19:04;;;;;;;11.73;10.60;;;;;;;;;;523788;28;819;-73
2023/12/05 01:19:19;;;;;;;12.25;11.00;;;;;;;;;;524204;28;902;-73
2023/12/05 01:19:35;;;;;;;12.03;10.83;;;;;;;;;;524041;28;1040;-73
2023/12/05 01:19:50;;;;;;;12.30;11.10;;;;;;;;;;524198;28;811;-74
2023/12/05 01:20:07;;;;;;;12.60;11.30;;;;;;;;;;524537;28;970;-74
2023/12/05 01:20:22;;;;;;;11.88;10.68;;;;;;;;;;524125;28;1088;-73
2023/12/05 01:20:38;;;;;;;13.20;10.67;;;;;;;;;;523823;28;2132;-73
2023/12/05 01:20:53;;;;;;;14.40;11.32;;;;;;;;;;523201;28;1987;-73
2023/12/05 01:21:08;;;;;;;12.47;11.17;;;;;;;;;;522404;28;1893;-74
2023/12/05 01:21:23;;;;;;;11.97;10.77;;;;;;;;;;524046;28;846;-73
2023/12/05 01:21:39;;;;;;;11.93;10.73;;;;;;;;;;523698;28;1036;-73
2023/12/05 01:21:55;;;;;;;12.00;10.80;;;;;;;;;;522703;28;2043;-73
2023/12/05 01:22:10;;;;;;;12.00;10.80;;;;;;;;;;523780;28;1004;-74
2023/12/05 01:22:25;;;;;;;11.53;10.43;;;;;;;;;;523762;28;799;-73
2023/12/05 01:22:40;;;;;;;11.77;10.57;;;;;;;;;;523702;28;1068;-74
2023/12/05 01:22:56;;;;;;;12.20;11.00;;;;;;;;;;523778;28;838;-73
2023/12/05 01:23:11;;;;;;;12.17;10.93;;;;;;;;;;521973;28;899;-73
2023/12/05 01:23:26;;;;;;;11.80;10.60;;;;;;;;;;522062;28;846;-73
2023/12/05 01:23:41;;;;;;;11.27;10.17;;;;;;;;;;523308;28;1033;-74
2023/12/05 01:23:57;;;;;;;11.43;10.27;;;;;;;;;;522374;28;1597;-74
2023/12/05 01:24:12;;;;;;;12.13;10.93;;;;;;;;;;522403;28;906;-73
2023/12/05 01:24:27;;;;;;;12.43;11.23;;;;;;;;;;523617;28;846;-73
2023/12/05 01:24:43;;;;;;;12.68;11.38;;;;;;;;;;523905;28;1044;-73
2023/12/05 01:24:58;;;;;;;12.30;11.10;;;;;;;;;;524185;28;854;-73
2023/12/05 01:25:13;;;;;;;11.60;10.50;;;;;;;;;;524150;28;898;-73
2023/12/05 01:25:29;;;;;;;11.48;10.27;;;;;;;;;;524155;28;878;-73
2023/12/05 01:25:44;;;;;;;11.13;10.03;;;;;;;;;;523929;28;863;-74
2023/12/05 01:26:00;;;;;;;10.60;9.60;;;;;;;;;;524205;28;977;-74
2023/12/05 01:26:15;;;;;;;10.73;9.73;;;;;;;;;;524153;28;1033;-74
2023/12/05 01:26:30;;;;;;;10.93;9.83;;;;;;;;;;524184;28;882;-73
2023/12/05 01:26:46;;;;;;;10.90;9.80;;;;;;;;;;523876;28;1155;-73
2023/12/05 01:27:02;;;;;;;10.57;9.57;;;;;;;;;;524106;28;1048;-73
2023/12/05 01:27:17;;;;;;;10.43;9.43;;;;;;;;;;524003;28;1969;-73
2023/12/05 01:27:33;;;;;;;10.25;9.25;;;;;;;;;;524127;28;1147;-73
2023/12/05 01:27:48;;;;;;;9.80;8.80;;;;;;;;;;523993;28;776;-73
2023/12/05 01:28:04;;;;;;;10.07;9.07;;;;;;;;;;524123;28;902;-74
2023/12/05 01:28:19;;;;;;;10.30;9.30;;;;;;;;;;524163;28;854;-74
2023/12/05 01:28:34;;;;;;;10.30;9.30;;;;;;;;;;524095;28;1142;-73
2023/12/05 01:28:50;;;;;;;10.47;9.47;;;;;;;;;;523815;28;1032;-73
2023/12/05 01:29:05;;;;;;;10.70;9.70;;;;;;;;;;523837;28;811;-74
2023/12/05 01:29:21;;;;;;;10.70;9.60;;;;;;;;;;524014;28;1019;-73
2023/12/05 01:29:36;;;;;;;10.43;9.43;;;;;;;;;;524070;28;1111;-73
2023/12/05 01:29:52;;;;;;;10.40;9.40;;;;;;;;;;524150;28;866;-73
2023/12/05 01:30:08;;;;;;;10.33;9.33;;;;;;;;;;524216;28;960;-73
2023/12/05 01:30:23;;;;;;;10.75;9.65;;;;;;;;;;524123;28;874;-73
2023/12/05 01:30:38;;;;;;;10.80;9.70;;;;;;;;;;522648;28;1797;-73
2023/12/05 01:30:54;;;;;;;10.30;9.30;;;;;;;;;;521941;28;835;-73
2023/12/05 01:31:09;;;;;;;10.40;9.40;;;;;;;;;;522879;28;974;-73
2023/12/05 01:31:24;;;;;;;10.30;9.30;;;;;;;;;;524080;28;1013;-73
2023/12/05 01:31:39;;;;;;;10.10;9.10;;;;;;;;;;524011;28;1028;-73
2023/12/05 01:31:55;;;;;;;10.00;9.00;;;;;;;;;;524053;28;902;-73
2023/12/05 01:32:10;;;;;;;9.50;8.60;;;;;;;;;;524100;28;981;-73
2023/12/05 01:32:25;;;;;;;9.65;8.75;;;;;;;;;;524019;28;976;-73
2023/12/05 01:32:41;;;;;;;9.93;8.93;;;;;;;;;;523944;28;1145;-73
2023/12/05 01:32:56;;;;;;;10.03;9.03;;;;;;;;;;523834;28;871;-73
2023/12/05 01:33:11;;;;;;;10.18;9.18;;;;;;;;;;524007;28;874;-73
2023/12/05 01:33:26;;;;;;;10.10;9.20;;;;;;;;;;521796;28;913;-73
2023/12/05 01:33:42;;;;;;;9.63;8.73;;;;;;;;;;521795;28;1100;-73
2023/12/05 01:33:57;;;;;;;10.40;9.40;;;;;;;;;;521375;28;1005;-73